Stafford, Connecticut
Current Conditions -  °F | °C
As of 1:52 PM on Monday 20 Oct 2014 (Local Time) from KIJD Reporting Station
Few Clouds Few Clouds  
Wind Chill: 55°   Ceiling: Unl
Heat Index: 55°   Visibility: 10mi
Dew Point: 32°   Wind: 6mph
Humidity: 42%   Direction: NA
Pressure: 30.02"   Gusts: NA
Location:  41.98°N, 72.29°W
Report Text: KIJD 201752Z AUTO VRB05KT 10SM FEW120 13/00 A3002 RMK AO2 SLP165 T01280000 10133 20000 56027
Loading
Personal Weather Stations






























Interactive Weather Map
Tropical Storm Tracking
New forecast layout! Learn more

10-Day Weather Forecast

Advertisements
Track Severe Weather on mobile